sensor_id;sensor_type;location;lat;lon;timestamp;P1;P2;P0
64613;PMS5003;51025;37.772;-122.432;2023-08-06T00:00:24;3;1;
64613;PMS5003;51025;37.772;-122.432;2023-08-06T00:02:52;6;5;
64613;PMS5003;51025;37.772;-122.432;2023-08-06T00:05:20;3;3;
64613;PMS5003;51025;37.772;-122.432;2023-08-06T00:07:47;5;5;
64613;PMS5003;51025;37.772;-122.432;2023-08-06T00:10:16;2;2;
64613;PMS5003;51025;37.772;-122.432;2023-08-06T00:12:44;7;5;
64613;PMS5003;51025;37.772;-122.432;2023-08-06T00:15:13;6;5;
64613;PMS5003;51025;37.772;-122.432;2023-08-06T00:17:41;5;3;
64613;PMS5003;51025;37.772;-122.432;2023-08-06T00:20:09;6;4;
64613;PMS5003;51025;37.772;-122.432;2023-08-06T00:22:38;7;5;
64613;PMS5003;51025;37.772;-122.432;2023-08-06T00:25:07;3;3;
64613;PMS5003;51025;37.772;-122.432;2023-08-06T00:27:36;5;4;
64613;PMS5003;51025;37.772;-122.432;2023-08-06T00:30:04;9;5;
64613;PMS5003;51025;37.772;-122.432;2023-08-06T00:32:34;6;3;
64613;PMS5003;51025;37.772;-122.432;2023-08-06T00:35:03;8;5;
64613;PMS5003;51025;37.772;-122.432;2023-08-06T00:37:32;5;3;
64613;PMS5003;51025;37.772;-122.432;2023-08-06T00:40:01;5;4;
64613;PMS5003;51025;37.772;-122.432;2023-08-06T00:42:29;6;4;
64613;PMS5003;51025;37.772;-122.432;2023-08-06T00:44:57;4;4;
64613;PMS5003;51025;37.772;-122.432;2023-08-06T00:47:26;8;7;
64613;PMS5003;51025;37.772;-122.432;2023-08-06T00:49:54;10;6;
64613;PMS5003;51025;37.772;-122.432;2023-08-06T00:52:23;5;3;
64613;PMS5003;51025;37.772;-122.432;2023-08-06T00:54:51;6;5;
64613;PMS5003;51025;37.772;-122.432;2023-08-06T00:57:19;7;5;
64613;PMS5003;51025;37.772;-122.432;2023-08-06T00:59:51;4;4;
64613;PMS5003;51025;37.772;-122.432;2023-08-06T01:02:21;6;4;
64613;PMS5003;51025;37.772;-122.432;2023-08-06T01:04:49;8;5;
64613;PMS5003;51025;37.772;-122.432;2023-08-06T01:07:20;5;4;
64613;PMS5003;51025;37.772;-122.432;2023-08-06T01:10:04;3;3;
64613;PMS5003;51025;37.772;-122.432;2023-08-06T01:12:45;3;3;
64613;PMS5003;51025;37.772;-122.432;2023-08-06T01:15:23;9;6;
64613;PMS5003;51025;37.772;-122.432;2023-08-06T01:17:55;6;4;
64613;PMS5003;51025;37.772;-122.432;2023-08-06T01:20:27;9;6;
64613;PMS5003;51025;37.772;-122.432;2023-08-06T01:22:56;5;5;
64613;PMS5003;51025;37.772;-122.432;2023-08-06T01:25:25;4;4;
64613;PMS5003;51025;37.772;-122.432;2023-08-06T01:27:57;6;6;
64613;PMS5003;51025;37.772;-122.432;2023-08-06T01:30:37;5;4;
64613;PMS5003;51025;37.772;-122.432;2023-08-06T01:33:09;7;4;
64613;PMS5003;51025;37.772;-122.432;2023-08-06T01:35:43;8;8;
64613;PMS5003;51025;37.772;-122.432;2023-08-06T01:38:13;7;7;
64613;PMS5003;51025;37.772;-122.432;2023-08-06T01:40:42;9;7;
64613;PMS5003;51025;37.772;-122.432;2023-08-06T01:43:10;10;5;
64613;PMS5003;51025;37.772;-122.432;2023-08-06T01:45:39;5;4;
64613;PMS5003;51025;37.772;-122.432;2023-08-06T01:48:07;4;4;
64613;PMS5003;51025;37.772;-122.432;2023-08-06T01:50:36;9;7;
64613;PMS5003;51025;37.772;-122.432;2023-08-06T01:53:05;5;4;
64613;PMS5003;51025;37.772;-122.432;2023-08-06T01:55:33;7;7;
64613;PMS5003;51025;37.772;-122.432;2023-08-06T01:58:02;4;4;
64613;PMS5003;51025;37.772;-122.432;2023-08-06T02:00:30;9;7;
64613;PMS5003;51025;37.772;-122.432;2023-08-06T02:02:58;6;6;
64613;PMS5003;51025;37.772;-122.432;2023-08-06T02:05:27;5;5;
64613;PMS5003;51025;37.772;-122.432;2023-08-06T02:07:55;5;4;
64613;PMS5003;51025;37.772;-122.432;2023-08-06T02:10:24;6;3;
64613;PMS5003;51025;37.772;-122.432;2023-08-06T02:12:52;6;6;
64613;PMS5003;51025;37.772;-122.432;2023-08-06T02:15:21;7;5;
64613;PMS5003;51025;37.772;-122.432;2023-08-06T02:17:49;8;6;
64613;PMS5003;51025;37.772;-122.432;2023-08-06T02:20:17;6;4;
64613;PMS5003;51025;37.772;-122.432;2023-08-06T02:22:45;8;3;
64613;PMS5003;51025;37.772;-122.432;2023-08-06T02:25:14;12;6;
64613;PMS5003;51025;37.772;-122.432;2023-08-06T02:27:43;4;4;
64613;PMS5003;51025;37.772;-122.432;2023-08-06T02:30:11;8;4;
64613;PMS5003;51025;37.772;-122.432;2023-08-06T02:32:40;6;4;
64613;PMS5003;51025;37.772;-122.432;2023-08-06T02:35:08;7;3;
64613;PMS5003;51025;37.772;-122.432;2023-08-06T02:37:41;4;4;
64613;PMS5003;51025;37.772;-122.432;2023-08-06T02:40:12;7;6;
64613;PMS5003;51025;37.772;-122.432;2023-08-06T02:42:41;4;3;
64613;PMS5003;51025;37.772;-122.432;2023-08-06T02:45:09;10;9;
64613;PMS5003;51025;37.772;-122.432;2023-08-06T02:47:39;6;4;
64613;PMS5003;51025;37.772;-122.432;2023-08-06T02:50:09;7;5;
64613;PMS5003;51025;37.772;-122.432;2023-08-06T02:52:39;7;5;
64613;PMS5003;51025;37.772;-122.432;2023-08-06T02:55:07;11;7;
64613;PMS5003;51025;37.772;-122.432;2023-08-06T02:57:37;17;16;
64613;PMS5003;51025;37.772;-122.432;2023-08-06T03:00:06;30;25;
64613;PMS5003;51025;37.772;-122.432;2023-08-06T03:02:35;27;24;
64613;PMS5003;51025;37.772;-122.432;2023-08-06T03:05:04;32;31;
64613;PMS5003;51025;37.772;-122.432;2023-08-06T03:07:32;31;31;
64613;PMS5003;51025;37.772;-122.432;2023-08-06T03:10:01;30;25;
64613;PMS5003;51025;37.772;-122.432;2023-08-06T03:12:29;28;27;
64613;PMS5003;51025;37.772;-122.432;2023-08-06T03:14:57;27;26;
64613;PMS5003;51025;37.772;-122.432;2023-08-06T03:17:26;25;21;
64613;PMS5003;51025;37.772;-122.432;2023-08-06T03:19:54;21;18;
64613;PMS5003;51025;37.772;-122.432;2023-08-06T03:22:23;21;19;
64613;PMS5003;51025;37.772;-122.432;2023-08-06T03:24:52;21;19;
64613;PMS5003;51025;37.772;-122.432;2023-08-06T03:27:20;17;16;
64613;PMS5003;51025;37.772;-122.432;2023-08-06T03:29:49;19;17;
64613;PMS5003;51025;37.772;-122.432;2023-08-06T03:32:17;18;14;
64613;PMS5003;51025;37.772;-122.432;2023-08-06T03:34:46;20;18;
64613;PMS5003;51025;37.772;-122.432;2023-08-06T03:37:14;27;22;
64613;PMS5003;51025;37.772;-122.432;2023-08-06T03:39:42;18;15;
64613;PMS5003;51025;37.772;-122.432;2023-08-06T03:42:11;19;14;
64613;PMS5003;51025;37.772;-122.432;2023-08-06T03:44:39;23;19;
64613;PMS5003;51025;37.772;-122.432;2023-08-06T03:47:08;12;11;
64613;PMS5003;51025;37.772;-122.432;2023-08-06T03:49:36;18;17;
64613;PMS5003;51025;37.772;-122.432;2023-08-06T03:52:05;14;12;
64613;PMS5003;51025;37.772;-122.432;2023-08-06T03:54:33;17;15;
64613;PMS5003;51025;37.772;-122.432;2023-08-06T03:57:01;12;12;
64613;PMS5003;51025;37.772;-122.432;2023-08-06T03:59:30;11;11;
64613;PMS5003;51025;37.772;-122.432;2023-08-06T04:01:58;10;9;
64613;PMS5003;51025;37.772;-122.432;2023-08-06T04:04:27;12;11;
64613;PMS5003;51025;37.772;-122.432;2023-08-06T04:06:56;13;11;
64613;PMS5003;51025;37.772;-122.432;2023-08-06T04:09:24;15;12;
64613;PMS5003;51025;37.772;-122.432;2023-08-06T04:11:55;13;11;
64613;PMS5003;51025;37.772;-122.432;2023-08-06T04:14:24;12;11;
64613;PMS5003;51025;37.772;-122.432;2023-08-06T04:16:54;12;12;
64613;PMS5003;51025;37.772;-122.432;2023-08-06T04:19:22;11;8;
64613;PMS5003;51025;37.772;-122.432;2023-08-06T04:21:51;10;10;
64613;PMS5003;51025;37.772;-122.432;2023-08-06T04:24:19;10;10;
64613;PMS5003;51025;37.772;-122.432;2023-08-06T04:26:48;14;11;
64613;PMS5003;51025;37.772;-122.432;2023-08-06T04:29:16;16;14;
64613;PMS5003;51025;37.772;-122.432;2023-08-06T04:31:44;10;7;
64613;PMS5003;51025;37.772;-122.432;2023-08-06T04:34:13;11;10;
64613;PMS5003;51025;37.772;-122.432;2023-08-06T04:36:41;11;9;
64613;PMS5003;51025;37.772;-122.432;2023-08-06T04:39:09;11;9;
64613;PMS5003;51025;37.772;-122.432;2023-08-06T04:41:38;13;9;
64613;PMS5003;51025;37.772;-122.432;2023-08-06T04:44:08;10;9;
64613;PMS5003;51025;37.772;-122.432;2023-08-06T04:46:36;11;8;
64613;PMS5003;51025;37.772;-122.432;2023-08-06T04:49:05;9;8;
64613;PMS5003;51025;37.772;-122.432;2023-08-06T04:51:33;7;6;
64613;PMS5003;51025;37.772;-122.432;2023-08-06T04:54:02;11;7;
64613;PMS5003;51025;37.772;-122.432;2023-08-06T04:56:31;18;13;
64613;PMS5003;51025;37.772;-122.432;2023-08-06T04:58:59;10;7;
64613;PMS5003;51025;37.772;-122.432;2023-08-06T05:01:28;9;5;
64613;PMS5003;51025;37.772;-122.432;2023-08-06T05:03:56;7;6;
64613;PMS5003;51025;37.772;-122.432;2023-08-06T05:06:24;9;7;
64613;PMS5003;51025;37.772;-122.432;2023-08-06T05:08:52;6;6;
64613;PMS5003;51025;37.772;-122.432;2023-08-06T05:11:20;12;10;
64613;PMS5003;51025;37.772;-122.432;2023-08-06T05:13:48;7;7;
64613;PMS5003;51025;37.772;-122.432;2023-08-06T05:16:16;9;9;
64613;PMS5003;51025;37.772;-122.432;2023-08-06T05:18:45;12;8;
64613;PMS5003;51025;37.772;-122.432;2023-08-06T05:21:13;15;10;
64613;PMS5003;51025;37.772;-122.432;2023-08-06T05:23:41;7;7;
64613;PMS5003;51025;37.772;-122.432;2023-08-06T05:26:10;12;7;
64613;PMS5003;51025;37.772;-122.432;2023-08-06T05:28:38;10;8;
64613;PMS5003;51025;37.772;-122.432;2023-08-06T05:31:07;9;8;
64613;PMS5003;51025;37.772;-122.432;2023-08-06T05:33:36;9;6;
64613;PMS5003;51025;37.772;-122.432;2023-08-06T05:36:04;8;6;
64613;PMS5003;51025;37.772;-122.432;2023-08-06T05:38:33;9;8;
64613;PMS5003;51025;37.772;-122.432;2023-08-06T05:41:01;10;7;
64613;PMS5003;51025;37.772;-122.432;2023-08-06T05:43:31;6;6;
64613;PMS5003;51025;37.772;-122.432;2023-08-06T05:45:59;10;8;
64613;PMS5003;51025;37.772;-122.432;2023-08-06T05:48:27;7;7;
64613;PMS5003;51025;37.772;-122.432;2023-08-06T05:50:55;9;6;
64613;PMS5003;51025;37.772;-122.432;2023-08-06T05:53:24;9;8;
64613;PMS5003;51025;37.772;-122.432;2023-08-06T05:55:51;12;7;
64613;PMS5003;51025;37.772;-122.432;2023-08-06T05:58:19;12;10;
64613;PMS5003;51025;37.772;-122.432;2023-08-06T06:00:48;10;7;
64613;PMS5003;51025;37.772;-122.432;2023-08-06T06:03:16;9;7;
64613;PMS5003;51025;37.772;-122.432;2023-08-06T06:05:45;10;8;
64613;PMS5003;51025;37.772;-122.432;2023-08-06T06:08:12;7;6;
64613;PMS5003;51025;37.772;-122.432;2023-08-06T06:10:41;8;6;
64613;PMS5003;51025;37.772;-122.432;2023-08-06T06:13:09;6;6;
64613;PMS5003;51025;37.772;-122.432;2023-08-06T06:15:38;12;9;
64613;PMS5003;51025;37.772;-122.432;2023-08-06T06:18:06;6;5;
64613;PMS5003;51025;37.772;-122.432;2023-08-06T06:20:34;11;8;
64613;PMS5003;51025;37.772;-122.432;2023-08-06T06:23:02;9;7;
64613;PMS5003;51025;37.772;-122.432;2023-08-06T06:25:31;9;5;
64613;PMS5003;51025;37.772;-122.432;2023-08-06T06:27:59;8;7;
64613;PMS5003;51025;37.772;-122.432;2023-08-06T06:30:28;13;13;
64613;PMS5003;51025;37.772;-122.432;2023-08-06T06:32:56;8;7;
64613;PMS5003;51025;37.772;-122.432;2023-08-06T06:35:24;9;5;
64613;PMS5003;51025;37.772;-122.432;2023-08-06T06:37:52;8;7;
64613;PMS5003;51025;37.772;-122.432;2023-08-06T06:40:20;7;6;
64613;PMS5003;51025;37.772;-122.432;2023-08-06T06:42:48;9;6;
64613;PMS5003;51025;37.772;-122.432;2023-08-06T06:45:17;9;7;
64613;PMS5003;51025;37.772;-122.432;2023-08-06T06:47:45;10;6;
64613;PMS5003;51025;37.772;-122.432;2023-08-06T06:50:14;7;6;
64613;PMS5003;51025;37.772;-122.432;2023-08-06T06:52:42;14;9;
64613;PMS5003;51025;37.772;-122.432;2023-08-06T06:55:11;6;6;
64613;PMS5003;51025;37.772;-122.432;2023-08-06T06:57:39;8;5;
64613;PMS5003;51025;37.772;-122.432;2023-08-06T07:00:08;11;6;
64613;PMS5003;51025;37.772;-122.432;2023-08-06T07:02:37;11;7;
64613;PMS5003;51025;37.772;-122.432;2023-08-06T07:05:05;8;4;
64613;PMS5003;51025;37.772;-122.432;2023-08-06T07:07:34;10;8;
64613;PMS5003;51025;37.772;-122.432;2023-08-06T07:10:03;7;7;
64613;PMS5003;51025;37.772;-122.432;2023-08-06T07:12:32;9;8;
64613;PMS5003;51025;37.772;-122.432;2023-08-06T07:15:00;8;6;
64613;PMS5003;51025;37.772;-122.432;2023-08-06T07:17:34;8;5;
64613;PMS5003;51025;37.772;-122.432;2023-08-06T07:20:04;8;7;
64613;PMS5003;51025;37.772;-122.432;2023-08-06T07:22:33;8;7;
64613;PMS5003;51025;37.772;-122.432;2023-08-06T07:25:02;7;7;
64613;PMS5003;51025;37.772;-122.432;2023-08-06T07:27:32;11;7;
64613;PMS5003;51025;37.772;-122.432;2023-08-06T07:30:00;7;5;
64613;PMS5003;51025;37.772;-122.432;2023-08-06T07:32:29;6;5;
64613;PMS5003;51025;37.772;-122.432;2023-08-06T07:34:58;9;7;
64613;PMS5003;51025;37.772;-122.432;2023-08-06T07:37:26;9;7;
64613;PMS5003;51025;37.772;-122.432;2023-08-06T07:39:55;4;4;
64613;PMS5003;51025;37.772;-122.432;2023-08-06T07:42:24;8;5;
64613;PMS5003;51025;37.772;-122.432;2023-08-06T07:44:53;9;6;
64613;PMS5003;51025;37.772;-122.432;2023-08-06T07:47:23;5;5;
64613;PMS5003;51025;37.772;-122.432;2023-08-06T07:49:52;8;4;
64613;PMS5003;51025;37.772;-122.432;2023-08-06T07:52:20;5;5;
64613;PMS5003;51025;37.772;-122.432;2023-08-06T07:54:48;9;4;
64613;PMS5003;51025;37.772;-122.432;2023-08-06T07:57:16;5;3;
64613;PMS5003;51025;37.772;-122.432;2023-08-06T07:59:44;8;5;
64613;PMS5003;51025;37.772;-122.432;2023-08-06T08:02:12;11;6;
64613;PMS5003;51025;37.772;-122.432;2023-08-06T08:04:41;8;6;
64613;PMS5003;51025;37.772;-122.432;2023-08-06T08:07:09;7;5;
64613;PMS5003;51025;37.772;-122.432;2023-08-06T08:09:38;9;7;
64613;PMS5003;51025;37.772;-122.432;2023-08-06T08:12:06;6;5;
64613;PMS5003;51025;37.772;-122.432;2023-08-06T08:14:35;4;4;
64613;PMS5003;51025;37.772;-122.432;2023-08-06T08:17:04;8;5;
64613;PMS5003;51025;37.772;-122.432;2023-08-06T08:19:33;5;4;
64613;PMS5003;51025;37.772;-122.432;2023-08-06T08:22:01;6;5;
64613;PMS5003;51025;37.772;-122.432;2023-08-06T08:24:30;5;5;
64613;PMS5003;51025;37.772;-122.432;2023-08-06T08:26:58;6;6;
64613;PMS5003;51025;37.772;-122.432;2023-08-06T08:29:26;9;5;
64613;PMS5003;51025;37.772;-122.432;2023-08-06T08:31:54;9;6;
64613;PMS5003;51025;37.772;-122.432;2023-08-06T08:34:22;4;3;
64613;PMS5003;51025;37.772;-122.432;2023-08-06T08:36:51;7;5;
64613;PMS5003;51025;37.772;-122.432;2023-08-06T08:39:19;5;5;
64613;PMS5003;51025;37.772;-122.432;2023-08-06T08:41:47;6;3;
64613;PMS5003;51025;37.772;-122.432;2023-08-06T08:44:16;8;6;
64613;PMS5003;51025;37.772;-122.432;2023-08-06T08:46:45;7;6;
64613;PMS5003;51025;37.772;-122.432;2023-08-06T08:49:15;8;6;
64613;PMS5003;51025;37.772;-122.432;2023-08-06T08:51:45;6;4;
64613;PMS5003;51025;37.772;-122.432;2023-08-06T08:54:16;7;4;
64613;PMS5003;51025;37.772;-122.432;2023-08-06T08:56:45;9;5;
64613;PMS5003;51025;37.772;-122.432;2023-08-06T08:59:13;9;9;
64613;PMS5003;51025;37.772;-122.432;2023-08-06T09:01:42;5;4;
64613;PMS5003;51025;37.772;-122.432;2023-08-06T09:04:12;7;5;
64613;PMS5003;51025;37.772;-122.432;2023-08-06T09:06:40;6;6;
64613;PMS5003;51025;37.772;-122.432;2023-08-06T09:09:11;6;6;
64613;PMS5003;51025;37.772;-122.432;2023-08-06T09:11:43;5;4;
64613;PMS5003;51025;37.772;-122.432;2023-08-06T09:14:12;4;4;
64613;PMS5003;51025;37.772;-122.432;2023-08-06T09:16:40;8;5;
64613;PMS5003;51025;37.772;-122.432;2023-08-06T09:19:10;6;5;
64613;PMS5003;51025;37.772;-122.432;2023-08-06T09:21:39;6;3;
64613;PMS5003;51025;37.772;-122.432;2023-08-06T09:24:08;5;1;
64613;PMS5003;51025;37.772;-122.432;2023-08-06T09:26:37;8;4;
64613;PMS5003;51025;37.772;-122.432;2023-08-06T09:29:08;5;3;
64613;PMS5003;51025;37.772;-122.432;2023-08-06T09:31:40;8;5;
64613;PMS5003;51025;37.772;-122.432;2023-08-06T09:34:10;7;5;
64613;PMS5003;51025;37.772;-122.432;2023-08-06T09:36:42;6;4;
64613;PMS5003;51025;37.772;-122.432;2023-08-06T09:39:13;7;4;
64613;PMS5003;51025;37.772;-122.432;2023-08-06T09:41:43;3;3;
64613;PMS5003;51025;37.772;-122.432;2023-08-06T09:44:15;10;7;
64613;PMS5003;51025;37.772;-122.432;2023-08-06T09:46:47;7;5;
64613;PMS5003;51025;37.772;-122.432;2023-08-06T09:49:17;6;4;
64613;PMS5003;51025;37.772;-122.432;2023-08-06T09:51:46;5;4;
64613;PMS5003;51025;37.772;-122.432;2023-08-06T09:54:15;6;4;
64613;PMS5003;51025;37.772;-122.432;2023-08-06T09:56:44;5;3;
64613;PMS5003;51025;37.772;-122.432;2023-08-06T09:59:13;5;3;
64613;PMS5003;51025;37.772;-122.432;2023-08-06T10:01:42;7;5;
64613;PMS5003;51025;37.772;-122.432;2023-08-06T10:04:10;4;3;
64613;PMS5003;51025;37.772;-122.432;2023-08-06T10:06:40;4;4;
64613;PMS5003;51025;37.772;-122.432;2023-08-06T10:09:09;9;4;
64613;PMS5003;51025;37.772;-122.432;2023-08-06T10:11:38;4;1;
64613;PMS5003;51025;37.772;-122.432;2023-08-06T10:14:11;4;4;
64613;PMS5003;51025;37.772;-122.432;2023-08-06T10:16:43;7;4;
64613;PMS5003;51025;37.772;-122.432;2023-08-06T10:19:12;5;4;
64613;PMS5003;51025;37.772;-122.432;2023-08-06T10:21:57;6;6;
64613;PMS5003;51025;37.772;-122.432;2023-08-06T10:24:53;9;5;
64613;PMS5003;51025;37.772;-122.432;2023-08-06T10:27:23;9;8;
64613;PMS5003;51025;37.772;-122.432;2023-08-06T10:29:56;6;4;
64613;PMS5003;51025;37.772;-122.432;2023-08-06T10:32:50;5;4;
64613;PMS5003;51025;37.772;-122.432;2023-08-06T10:35:36;7;4;
64613;PMS5003;51025;37.772;-122.432;2023-08-06T10:38:08;5;3;
64613;PMS5003;51025;37.772;-122.432;2023-08-06T10:40:37;4;2;
64613;PMS5003;51025;37.772;-122.432;2023-08-06T10:43:08;5;3;
64613;PMS5003;51025;37.772;-122.432;2023-08-06T10:45:53;5;4;
64613;PMS5003;51025;37.772;-122.432;2023-08-06T10:48:30;12;6;
64613;PMS5003;51025;37.772;-122.432;2023-08-06T10:51:01;4;3;
64613;PMS5003;51025;37.772;-122.432;2023-08-06T10:53:30;3;2;
64613;PMS5003;51025;37.772;-122.432;2023-08-06T10:55:58;6;5;
64613;PMS5003;51025;37.772;-122.432;2023-08-06T10:58:26;5;4;
64613;PMS5003;51025;37.772;-122.432;2023-08-06T11:00:59;3;3;
64613;PMS5003;51025;37.772;-122.432;2023-08-06T11:03:27;6;4;
64613;PMS5003;51025;37.772;-122.432;2023-08-06T11:05:56;7;6;
64613;PMS5003;51025;37.772;-122.432;2023-08-06T11:08:25;4;3;
64613;PMS5003;51025;37.772;-122.432;2023-08-06T11:10:54;6;4;
64613;PMS5003;51025;37.772;-122.432;2023-08-06T11:13:34;4;4;
64613;PMS5003;51025;37.772;-122.432;2023-08-06T11:16:02;3;3;
64613;PMS5003;51025;37.772;-122.432;2023-08-06T11:18:31;4;4;
64613;PMS5003;51025;37.772;-122.432;2023-08-06T11:21:00;4;4;
64613;PMS5003;51025;37.772;-122.432;2023-08-06T11:23:29;5;3;
64613;PMS5003;51025;37.772;-122.432;2023-08-06T11:25:58;4;4;
64613;PMS5003;51025;37.772;-122.432;2023-08-06T11:28:26;3;3;
64613;PMS5003;51025;37.772;-122.432;2023-08-06T11:30:54;4;2;
64613;PMS5003;51025;37.772;-122.432;2023-08-06T11:33:23;4;2;
64613;PMS5003;51025;37.772;-122.432;2023-08-06T11:35:52;4;3;
64613;PMS5003;51025;37.772;-122.432;2023-08-06T11:38:24;5;5;
64613;PMS5003;51025;37.772;-122.432;2023-08-06T11:40:53;4;3;
64613;PMS5003;51025;37.772;-122.432;2023-08-06T11:43:21;3;1;
64613;PMS5003;51025;37.772;-122.432;2023-08-06T11:45:50;4;2;
64613;PMS5003;51025;37.772;-122.432;2023-08-06T11:48:18;2;1;
64613;PMS5003;51025;37.772;-122.432;2023-08-06T11:50:47;4;2;
64613;PMS5003;51025;37.772;-122.432;2023-08-06T11:53:15;4;4;
64613;PMS5003;51025;37.772;-122.432;2023-08-06T11:55:43;10;5;
64613;PMS5003;51025;37.772;-122.432;2023-08-06T11:58:12;5;3;
64613;PMS5003;51025;37.772;-122.432;2023-08-06T12:00:43;6;4;
64613;PMS5003;51025;37.772;-122.432;2023-08-06T12:03:11;7;5;
64613;PMS5003;51025;37.772;-122.432;2023-08-06T12:05:40;6;3;
64613;PMS5003;51025;37.772;-122.432;2023-08-06T12:08:12;9;3;
64613;PMS5003;51025;37.772;-122.432;2023-08-06T12:10:40;14;13;
64613;PMS5003;51025;37.772;-122.432;2023-08-06T12:13:08;14;12;
64613;PMS5003;51025;37.772;-122.432;2023-08-06T12:15:36;8;6;
64613;PMS5003;51025;37.772;-122.432;2023-08-06T12:18:04;6;5;
64613;PMS5003;51025;37.772;-122.432;2023-08-06T12:20:33;3;3;
64613;PMS5003;51025;37.772;-122.432;2023-08-06T12:23:01;7;3;
64613;PMS5003;51025;37.772;-122.432;2023-08-06T12:25:30;3;3;
64613;PMS5003;51025;37.772;-122.432;2023-08-06T12:27:58;4;4;
64613;PMS5003;51025;37.772;-122.432;2023-08-06T12:30:26;5;5;
64613;PMS5003;51025;37.772;-122.432;2023-08-06T12:32:54;4;4;
64613;PMS5003;51025;37.772;-122.432;2023-08-06T12:35:22;3;3;
64613;PMS5003;51025;37.772;-122.432;2023-08-06T12:37:51;3;2;
64613;PMS5003;51025;37.772;-122.432;2023-08-06T12:40:19;7;4;
64613;PMS5003;51025;37.772;-122.432;2023-08-06T12:42:49;4;4;
64613;PMS5003;51025;37.772;-122.432;2023-08-06T12:45:18;3;2;
64613;PMS5003;51025;37.772;-122.432;2023-08-06T12:47:47;4;3;
64613;PMS5003;51025;37.772;-122.432;2023-08-06T12:50:15;4;3;
64613;PMS5003;51025;37.772;-122.432;2023-08-06T12:52:44;6;3;
64613;PMS5003;51025;37.772;-122.432;2023-08-06T12:55:12;8;4;
64613;PMS5003;51025;37.772;-122.432;2023-08-06T12:57:41;7;6;
64613;PMS5003;51025;37.772;-122.432;2023-08-06T13:00:09;7;7;
64613;PMS5003;51025;37.772;-122.432;2023-08-06T13:02:38;6;6;
64613;PMS5003;51025;37.772;-122.432;2023-08-06T13:05:07;4;3;
64613;PMS5003;51025;37.772;-122.432;2023-08-06T13:07:35;2;2;
64613;PMS5003;51025;37.772;-122.432;2023-08-06T13:10:04;4;4;
64613;PMS5003;51025;37.772;-122.432;2023-08-06T13:12:33;6;4;
64613;PMS5003;51025;37.772;-122.432;2023-08-06T13:15:01;8;6;
64613;PMS5003;51025;37.772;-122.432;2023-08-06T13:17:31;7;4;
64613;PMS5003;51025;37.772;-122.432;2023-08-06T13:19:59;5;4;
64613;PMS5003;51025;37.772;-122.432;2023-08-06T13:22:28;2;2;
64613;PMS5003;51025;37.772;-122.432;2023-08-06T13:24:56;9;4;
64613;PMS5003;51025;37.772;-122.432;2023-08-06T13:27:24;4;4;
64613;PMS5003;51025;37.772;-122.432;2023-08-06T13:29:52;6;5;
64613;PMS5003;51025;37.772;-122.432;2023-08-06T13:32:20;4;3;
64613;PMS5003;51025;37.772;-122.432;2023-08-06T13:34:48;3;3;
64613;PMS5003;51025;37.772;-122.432;2023-08-06T13:37:17;3;3;
64613;PMS5003;51025;37.772;-122.432;2023-08-06T13:39:45;3;3;
64613;PMS5003;51025;37.772;-122.432;2023-08-06T13:42:14;10;5;
64613;PMS5003;51025;37.772;-122.432;2023-08-06T13:44:42;4;4;
64613;PMS5003;51025;37.772;-122.432;2023-08-06T13:47:11;5;3;
64613;PMS5003;51025;37.772;-122.432;2023-08-06T13:49:39;6;3;
64613;PMS5003;51025;37.772;-122.432;2023-08-06T13:52:07;2;2;
64613;PMS5003;51025;37.772;-122.432;2023-08-06T13:54:36;3;3;
64613;PMS5003;51025;37.772;-122.432;2023-08-06T13:57:04;6;6;
64613;PMS5003;51025;37.772;-122.432;2023-08-06T13:59:33;7;4;
64613;PMS5003;51025;37.772;-122.432;2023-08-06T14:02:01;6;5;
64613;PMS5003;51025;37.772;-122.432;2023-08-06T14:04:30;6;5;
64613;PMS5003;51025;37.772;-122.432;2023-08-06T14:06:58;4;3;
64613;PMS5003;51025;37.772;-122.432;2023-08-06T14:09:26;6;4;
64613;PMS5003;51025;37.772;-122.432;2023-08-06T14:11:54;3;3;
64613;PMS5003;51025;37.772;-122.432;2023-08-06T14:14:22;11;6;
64613;PMS5003;51025;37.772;-122.432;2023-08-06T14:16:50;6;5;
64613;PMS5003;51025;37.772;-122.432;2023-08-06T14:19:18;4;4;
64613;PMS5003;51025;37.772;-122.432;2023-08-06T14:21:46;7;4;
64613;PMS5003;51025;37.772;-122.432;2023-08-06T14:24:14;4;3;
64613;PMS5003;51025;37.772;-122.432;2023-08-06T14:26:42;5;4;
64613;PMS5003;51025;37.772;-122.432;2023-08-06T14:29:10;8;4;
64613;PMS5003;51025;37.772;-122.432;2023-08-06T14:31:39;6;4;
64613;PMS5003;51025;37.772;-122.432;2023-08-06T14:34:08;4;4;
64613;PMS5003;51025;37.772;-122.432;2023-08-06T14:36:37;4;2;
64613;PMS5003;51025;37.772;-122.432;2023-08-06T14:39:05;8;6;
64613;PMS5003;51025;37.772;-122.432;2023-08-06T14:41:35;6;4;
64613;PMS5003;51025;37.772;-122.432;2023-08-06T14:44:03;7;5;
64613;PMS5003;51025;37.772;-122.432;2023-08-06T14:46:32;8;5;
64613;PMS5003;51025;37.772;-122.432;2023-08-06T14:49:00;7;2;
64613;PMS5003;51025;37.772;-122.432;2023-08-06T14:51:28;6;4;
64613;PMS5003;51025;37.772;-122.432;2023-08-06T14:53:56;6;5;
64613;PMS5003;51025;37.772;-122.432;2023-08-06T14:56:24;5;5;
64613;PMS5003;51025;37.772;-122.432;2023-08-06T14:58:52;7;4;
64613;PMS5003;51025;37.772;-122.432;2023-08-06T15:01:20;4;3;
64613;PMS5003;51025;37.772;-122.432;2023-08-06T15:03:48;8;4;
64613;PMS5003;51025;37.772;-122.432;2023-08-06T15:06:16;4;4;
64613;PMS5003;51025;37.772;-122.432;2023-08-06T15:08:44;5;5;
64613;PMS5003;51025;37.772;-122.432;2023-08-06T15:11:12;6;5;
64613;PMS5003;51025;37.772;-122.432;2023-08-06T15:13:41;7;5;
64613;PMS5003;51025;37.772;-122.432;2023-08-06T15:16:10;5;4;
64613;PMS5003;51025;37.772;-122.432;2023-08-06T15:18:39;5;5;
64613;PMS5003;51025;37.772;-122.432;2023-08-06T15:21:07;5;3;
64613;PMS5003;51025;37.772;-122.432;2023-08-06T15:23:36;5;5;
64613;PMS5003;51025;37.772;-122.432;2023-08-06T15:26:04;8;7;
64613;PMS5003;51025;37.772;-122.432;2023-08-06T15:28:33;6;6;
64613;PMS5003;51025;37.772;-122.432;2023-08-06T15:31:02;7;4;
64613;PMS5003;51025;37.772;-122.432;2023-08-06T15:33:31;3;3;
64613;PMS5003;51025;37.772;-122.432;2023-08-06T15:35:59;4;3;
64613;PMS5003;51025;37.772;-122.432;2023-08-06T15:38:28;5;5;
64613;PMS5003;51025;37.772;-122.432;2023-08-06T15:40:56;5;4;
64613;PMS5003;51025;37.772;-122.432;2023-08-06T15:43:24;11;8;
64613;PMS5003;51025;37.772;-122.432;2023-08-06T15:45:52;11;4;
64613;PMS5003;51025;37.772;-122.432;2023-08-06T15:48:21;7;7;
64613;PMS5003;51025;37.772;-122.432;2023-08-06T15:50:50;7;5;
64613;PMS5003;51025;37.772;-122.432;2023-08-06T15:53:18;9;5;
64613;PMS5003;51025;37.772;-122.432;2023-08-06T15:55:46;6;4;
64613;PMS5003;51025;37.772;-122.432;2023-08-06T15:58:14;4;3;
64613;PMS5003;51025;37.772;-122.432;2023-08-06T16:00:42;9;4;
64613;PMS5003;51025;37.772;-122.432;2023-08-06T16:03:10;7;5;
64613;PMS5003;51025;37.772;-122.432;2023-08-06T16:05:38;6;5;
64613;PMS5003;51025;37.772;-122.432;2023-08-06T16:08:06;6;6;